Aviation Digital Data Service (ADDS)

Output produced by METARs form (0558 UTC 20 October 2018)
found at http://www.aviationweather.gov/metar/data/
 
DIBK 200500Z VRB02KT 8000 FEW010 22/22 Q1012 NOSIG
TAF DIBK 200530Z 2006/2106 19007KT 9999 BKN010 
     PROB40 2006/2009 3000 BR 
     PROB30 
     TEMPO 2006/2008 0700 FG SCT005 BKN010 
     BECMG 2014/2015 SCT012 
     PROB30 
     TEMPO 2016/2022 TS BKN012 FEW023CB
       
DIAP 200530Z 07002KT 9999 FEW012 25/24 Q1009 NOSIG
TAF DIAP 200530Z 2006/2112 05007KT 9999 SCT012 
     BECMG 2007/2008 21010KT 
     PROB30 2006/2012 BKN010 BKN040 
     PROB30 
     TEMPO 2007/2012 4000 RA 
     PROB30 
     TEMPO 2015/2021 TS BKN012 FEW020CB
       
TAF DIYO 200530Z 2006/2106 22008KT 9999 BKN010 
     PROB40 2006/2009 3000 BR 
     PROB30 
     TEMPO 2006/2008 0700 FG SCT005 BKN010 
     BECMG 2014/2015 SCT011 
     PROB30 
     TEMPO 2016/2022 TS BKN011 FEW020CB